sensor_id;sensor_type;location;lat;lon;timestamp;P1;durP1;ratioP1;P2;durP2;ratioP2
23470;SDS011;11908;50.806;4.424;2023-06-24T00:01:25;10.10;;;6.50;;
23470;SDS011;11908;50.806;4.424;2023-06-24T00:03:51;13.93;;;7.10;;
23470;SDS011;11908;50.806;4.424;2023-06-24T00:06:18;9.18;;;6.97;;
23470;SDS011;11908;50.806;4.424;2023-06-24T00:08:53;14.35;;;7.05;;
23470;SDS011;11908;50.806;4.424;2023-06-24T00:11:26;8.15;;;7.10;;
23470;SDS011;11908;50.806;4.424;2023-06-24T00:13:55;12.07;;;6.72;;
23470;SDS011;11908;50.806;4.424;2023-06-24T00:16:21;11.43;;;6.80;;
23470;SDS011;11908;50.806;4.424;2023-06-24T00:18:52;10.90;;;6.53;;
23470;SDS011;11908;50.806;4.424;2023-06-24T00:21:19;9.13;;;6.47;;
23470;SDS011;11908;50.806;4.424;2023-06-24T00:23:45;7.97;;;6.00;;
23470;SDS011;11908;50.806;4.424;2023-06-24T00:26:13;10.10;;;6.20;;
23470;SDS011;11908;50.806;4.424;2023-06-24T00:28:39;11.15;;;6.75;;
23470;SDS011;11908;50.806;4.424;2023-06-24T00:31:04;8.80;;;6.15;;
23470;SDS011;11908;50.806;4.424;2023-06-24T00:33:30;7.88;;;6.13;;
23470;SDS011;11908;50.806;4.424;2023-06-24T00:36:01;12.10;;;6.57;;
23470;SDS011;11908;50.806;4.424;2023-06-24T00:38:26;8.05;;;6.15;;
23470;SDS011;11908;50.806;4.424;2023-06-24T00:40:57;9.23;;;6.07;;
23470;SDS011;11908;50.806;4.424;2023-06-24T00:43:23;12.50;;;7.75;;
23470;SDS011;11908;50.806;4.424;2023-06-24T00:45:49;21.05;;;14.10;;
23470;SDS011;11908;50.806;4.424;2023-06-24T00:48:16;22.83;;;14.13;;
23470;SDS011;11908;50.806;4.424;2023-06-24T00:50:42;20.05;;;11.65;;
23470;SDS011;11908;50.806;4.424;2023-06-24T00:53:10;27.73;;;16.80;;
23470;SDS011;11908;50.806;4.424;2023-06-24T00:55:37;33.55;;;22.65;;
23470;SDS011;11908;50.806;4.424;2023-06-24T00:58:03;49.63;;;31.30;;
23470;SDS011;11908;50.806;4.424;2023-06-24T01:00:29;46.75;;;28.73;;
23470;SDS011;11908;50.806;4.424;2023-06-24T01:02:57;42.58;;;23.10;;
23470;SDS011;11908;50.806;4.424;2023-06-24T01:05:24;26.85;;;16.42;;
23470;SDS011;11908;50.806;4.424;2023-06-24T01:07:52;21.77;;;11.43;;
23470;SDS011;11908;50.806;4.424;2023-06-24T01:10:21;16.30;;;9.55;;
23470;SDS011;11908;50.806;4.424;2023-06-24T01:12:48;15.68;;;7.55;;
23470;SDS011;11908;50.806;4.424;2023-06-24T01:15:14;12.30;;;7.32;;
23470;SDS011;11908;50.806;4.424;2023-06-24T01:26:28;5.80;;;5.20;;
23470;SDS011;11908;50.806;4.424;2023-06-24T01:34:47;12.25;;;5.88;;
23470;SDS011;11908;50.806;4.424;2023-06-24T01:37:21;7.20;;;5.40;;
23470;SDS011;11908;50.806;4.424;2023-06-24T01:42:33;8.30;;;5.93;;
23470;SDS011;11908;50.806;4.424;2023-06-24T01:45:02;7.90;;;5.53;;
23470;SDS011;11908;50.806;4.424;2023-06-24T01:47:28;5.90;;;5.03;;
23470;SDS011;11908;50.806;4.424;2023-06-24T01:49:55;7.43;;;5.55;;
23470;SDS011;11908;50.806;4.424;2023-06-24T01:52:25;7.18;;;5.50;;
23470;SDS011;11908;50.806;4.424;2023-06-24T01:54:52;7.97;;;5.68;;
23470;SDS011;11908;50.806;4.424;2023-06-24T01:57:21;8.48;;;5.05;;
23470;SDS011;11908;50.806;4.424;2023-06-24T01:59:48;7.97;;;5.45;;
23470;SDS011;11908;50.806;4.424;2023-06-24T02:02:15;8.48;;;5.35;;
23470;SDS011;11908;50.806;4.424;2023-06-24T02:04:45;9.98;;;5.40;;
23470;SDS011;11908;50.806;4.424;2023-06-24T02:07:10;6.63;;;5.25;;
23470;SDS011;11908;50.806;4.424;2023-06-24T02:09:37;10.85;;;5.30;;
23470;SDS011;11908;50.806;4.424;2023-06-24T02:12:04;7.43;;;5.10;;
23470;SDS011;11908;50.806;4.424;2023-06-24T02:14:31;7.70;;;5.15;;
23470;SDS011;11908;50.806;4.424;2023-06-24T02:16:58;12.45;;;5.43;;
23470;SDS011;11908;50.806;4.424;2023-06-24T02:19:27;4.97;;;4.47;;
23470;SDS011;11908;50.806;4.424;2023-06-24T02:21:55;6.57;;;5.38;;
23470;SDS011;11908;50.806;4.424;2023-06-24T02:24:23;8.07;;;5.03;;
23470;SDS011;11908;50.806;4.424;2023-06-24T02:26:49;5.97;;;5.13;;
23470;SDS011;11908;50.806;4.424;2023-06-24T02:29:16;7.20;;;5.35;;
23470;SDS011;11908;50.806;4.424;2023-06-24T02:31:42;12.18;;;5.30;;
23470;SDS011;11908;50.806;4.424;2023-06-24T02:34:08;11.68;;;5.32;;
23470;SDS011;11908;50.806;4.424;2023-06-24T02:36:34;7.93;;;5.15;;
23470;SDS011;11908;50.806;4.424;2023-06-24T02:39:00;6.75;;;5.43;;
23470;SDS011;11908;50.806;4.424;2023-06-24T02:41:25;9.02;;;5.25;;
23470;SDS011;11908;50.806;4.424;2023-06-24T02:43:51;6.28;;;5.15;;
23470;SDS011;11908;50.806;4.424;2023-06-24T02:46:17;8.32;;;5.30;;
23470;SDS011;11908;50.806;4.424;2023-06-24T02:48:44;6.20;;;5.10;;
23470;SDS011;11908;50.806;4.424;2023-06-24T02:51:10;9.85;;;5.70;;
23470;SDS011;11908;50.806;4.424;2023-06-24T02:53:38;10.77;;;5.20;;
23470;SDS011;11908;50.806;4.424;2023-06-24T02:56:04;8.65;;;5.03;;
23470;SDS011;11908;50.806;4.424;2023-06-24T02:58:33;8.38;;;5.28;;
23470;SDS011;11908;50.806;4.424;2023-06-24T03:00:59;9.82;;;5.35;;
23470;SDS011;11908;50.806;4.424;2023-06-24T03:03:26;7.63;;;5.20;;
23470;SDS011;11908;50.806;4.424;2023-06-24T03:05:53;7.07;;;5.53;;
23470;SDS011;11908;50.806;4.424;2023-06-24T03:08:21;6.60;;;4.97;;
23470;SDS011;11908;50.806;4.424;2023-06-24T03:10:49;5.30;;;4.22;;
23470;SDS011;11908;50.806;4.424;2023-06-24T03:13:24;9.38;;;4.97;;
23470;SDS011;11908;50.806;4.424;2023-06-24T03:15:50;5.63;;;4.60;;
23470;SDS011;11908;50.806;4.424;2023-06-24T03:18:16;6.63;;;4.72;;
23470;SDS011;11908;50.806;4.424;2023-06-24T03:20:42;7.63;;;5.03;;
23470;SDS011;11908;50.806;4.424;2023-06-24T03:23:08;8.02;;;5.40;;
23470;SDS011;11908;50.806;4.424;2023-06-24T03:25:34;8.00;;;4.78;;
23470;SDS011;11908;50.806;4.424;2023-06-24T03:28:00;12.88;;;4.75;;
23470;SDS011;11908;50.806;4.424;2023-06-24T03:30:28;7.25;;;4.40;;
23470;SDS011;11908;50.806;4.424;2023-06-24T03:32:55;7.72;;;5.30;;
23470;SDS011;11908;50.806;4.424;2023-06-24T03:35:22;7.47;;;4.82;;
23470;SDS011;11908;50.806;4.424;2023-06-24T03:37:48;7.03;;;4.43;;
23470;SDS011;11908;50.806;4.424;2023-06-24T03:40:14;5.90;;;5.25;;
23470;SDS011;11908;50.806;4.424;2023-06-24T03:42:40;5.88;;;4.90;;
23470;SDS011;11908;50.806;4.424;2023-06-24T03:45:05;8.13;;;5.15;;
23470;SDS011;11908;50.806;4.424;2023-06-24T03:47:32;6.82;;;5.10;;
23470;SDS011;11908;50.806;4.424;2023-06-24T03:49:57;7.68;;;5.43;;
23470;SDS011;11908;50.806;4.424;2023-06-24T03:52:23;6.00;;;4.43;;
23470;SDS011;11908;50.806;4.424;2023-06-24T03:54:49;8.80;;;5.18;;
23470;SDS011;11908;50.806;4.424;2023-06-24T03:57:15;5.95;;;4.43;;
23470;SDS011;11908;50.806;4.424;2023-06-24T03:59:40;7.00;;;4.80;;
23470;SDS011;11908;50.806;4.424;2023-06-24T04:02:06;8.20;;;4.95;;
23470;SDS011;11908;50.806;4.424;2023-06-24T04:04:35;10.85;;;5.30;;
23470;SDS011;11908;50.806;4.424;2023-06-24T04:07:00;7.63;;;5.55;;
23470;SDS011;11908;50.806;4.424;2023-06-24T04:09:28;11.75;;;5.63;;
23470;SDS011;11908;50.806;4.424;2023-06-24T04:11:54;5.22;;;4.32;;
23470;SDS011;11908;50.806;4.424;2023-06-24T04:14:20;12.07;;;4.80;;
23470;SDS011;11908;50.806;4.424;2023-06-24T04:16:46;10.43;;;4.38;;
23470;SDS011;11908;50.806;4.424;2023-06-24T04:19:11;8.40;;;4.53;;
23470;SDS011;11908;50.806;4.424;2023-06-24T04:21:37;6.10;;;4.65;;
23470;SDS011;11908;50.806;4.424;2023-06-24T04:24:03;6.75;;;5.18;;
23470;SDS011;11908;50.806;4.424;2023-06-24T04:26:30;12.77;;;4.65;;
23470;SDS011;11908;50.806;4.424;2023-06-24T04:28:55;6.82;;;4.60;;
23470;SDS011;11908;50.806;4.424;2023-06-24T04:31:21;7.07;;;4.05;;
23470;SDS011;11908;50.806;4.424;2023-06-24T04:33:46;6.30;;;4.05;;
23470;SDS011;11908;50.806;4.424;2023-06-24T04:36:12;7.63;;;3.47;;
23470;SDS011;11908;50.806;4.424;2023-06-24T04:38:38;9.25;;;3.35;;
23470;SDS011;11908;50.806;4.424;2023-06-24T04:41:03;5.15;;;3.22;;
23470;SDS011;11908;50.806;4.424;2023-06-24T04:43:29;10.52;;;2.90;;
23470;SDS011;11908;50.806;4.424;2023-06-24T04:45:55;3.85;;;3.15;;
23470;SDS011;11908;50.806;4.424;2023-06-24T04:48:24;3.60;;;2.50;;
23470;SDS011;11908;50.806;4.424;2023-06-24T04:50:51;4.03;;;2.70;;
23470;SDS011;11908;50.806;4.424;2023-06-24T04:53:18;4.72;;;2.88;;
23470;SDS011;11908;50.806;4.424;2023-06-24T04:55:44;5.45;;;2.70;;
23470;SDS011;11908;50.806;4.424;2023-06-24T04:58:10;4.50;;;2.45;;
23470;SDS011;11908;50.806;4.424;2023-06-24T05:00:35;4.25;;;2.70;;
23470;SDS011;11908;50.806;4.424;2023-06-24T05:03:01;8.32;;;2.72;;
23470;SDS011;11908;50.806;4.424;2023-06-24T05:05:27;4.90;;;2.45;;
23470;SDS011;11908;50.806;4.424;2023-06-24T05:07:52;4.80;;;2.13;;
23470;SDS011;11908;50.806;4.424;2023-06-24T05:10:18;5.13;;;2.35;;
23470;SDS011;11908;50.806;4.424;2023-06-24T05:12:44;4.10;;;2.65;;
23470;SDS011;11908;50.806;4.424;2023-06-24T05:15:10;4.68;;;2.28;;
23470;SDS011;11908;50.806;4.424;2023-06-24T05:17:35;2.78;;;2.05;;
23470;SDS011;11908;50.806;4.424;2023-06-24T05:20:01;5.00;;;2.17;;
23470;SDS011;11908;50.806;4.424;2023-06-24T05:22:28;4.32;;;2.00;;
23470;SDS011;11908;50.806;4.424;2023-06-24T05:24:53;3.35;;;2.42;;
23470;SDS011;11908;50.806;4.424;2023-06-24T05:27:19;6.78;;;2.00;;
23470;SDS011;11908;50.806;4.424;2023-06-24T05:29:45;3.25;;;2.22;;
23470;SDS011;11908;50.806;4.424;2023-06-24T05:32:11;4.70;;;2.08;;
23470;SDS011;11908;50.806;4.424;2023-06-24T05:34:37;6.75;;;2.22;;
23470;SDS011;11908;50.806;4.424;2023-06-24T05:37:03;5.28;;;1.98;;
23470;SDS011;11908;50.806;4.424;2023-06-24T05:39:29;3.92;;;1.98;;
23470;SDS011;11908;50.806;4.424;2023-06-24T05:41:55;2.83;;;2.10;;
23470;SDS011;11908;50.806;4.424;2023-06-24T05:44:21;2.90;;;1.80;;
23470;SDS011;11908;50.806;4.424;2023-06-24T05:46:47;2.58;;;2.10;;
23470;SDS011;11908;50.806;4.424;2023-06-24T05:49:13;2.78;;;2.15;;
23470;SDS011;11908;50.806;4.424;2023-06-24T05:51:39;2.75;;;2.03;;
23470;SDS011;11908;50.806;4.424;2023-06-24T05:54:04;3.85;;;1.88;;
23470;SDS011;11908;50.806;4.424;2023-06-24T05:56:30;4.55;;;1.92;;
23470;SDS011;11908;50.806;4.424;2023-06-24T05:58:57;2.20;;;1.70;;
23470;SDS011;11908;50.806;4.424;2023-06-24T06:01:22;2.58;;;1.60;;
23470;SDS011;11908;50.806;4.424;2023-06-24T06:03:48;3.63;;;1.85;;
23470;SDS011;11908;50.806;4.424;2023-06-24T06:06:14;3.38;;;1.90;;
23470;SDS011;11908;50.806;4.424;2023-06-24T06:08:40;2.03;;;1.80;;
23470;SDS011;11908;50.806;4.424;2023-06-24T06:11:06;2.67;;;1.67;;
23470;SDS011;11908;50.806;4.424;2023-06-24T06:13:31;2.70;;;1.80;;
23470;SDS011;11908;50.806;4.424;2023-06-24T06:15:58;4.88;;;2.08;;
23470;SDS011;11908;50.806;4.424;2023-06-24T06:18:23;2.13;;;1.70;;
23470;SDS011;11908;50.806;4.424;2023-06-24T06:20:49;3.30;;;1.75;;
23470;SDS011;11908;50.806;4.424;2023-06-24T06:23:16;1.55;;;1.40;;
23470;SDS011;11908;50.806;4.424;2023-06-24T06:25:42;1.92;;;1.67;;
23470;SDS011;11908;50.806;4.424;2023-06-24T06:28:08;2.88;;;1.83;;
23470;SDS011;11908;50.806;4.424;2023-06-24T06:30:34;5.28;;;2.22;;
23470;SDS011;11908;50.806;4.424;2023-06-24T06:32:59;6.18;;;1.90;;
23470;SDS011;11908;50.806;4.424;2023-06-24T06:35:25;3.50;;;1.67;;
23470;SDS011;11908;50.806;4.424;2023-06-24T06:37:51;4.05;;;1.73;;
23470;SDS011;11908;50.806;4.424;2023-06-24T06:40:21;4.88;;;1.45;;
23470;SDS011;11908;50.806;4.424;2023-06-24T06:42:47;1.60;;;1.40;;
23470;SDS011;11908;50.806;4.424;2023-06-24T06:45:12;3.38;;;1.67;;
23470;SDS011;11908;50.806;4.424;2023-06-24T06:47:38;2.03;;;1.60;;
23470;SDS011;11908;50.806;4.424;2023-06-24T06:50:04;3.90;;;1.63;;
23470;SDS011;11908;50.806;4.424;2023-06-24T06:52:31;2.95;;;1.70;;
23470;SDS011;11908;50.806;4.424;2023-06-24T06:54:56;4.40;;;1.80;;
23470;SDS011;11908;50.806;4.424;2023-06-24T06:57:22;3.15;;;1.70;;
23470;SDS011;11908;50.806;4.424;2023-06-24T06:59:48;3.55;;;1.70;;
23470;SDS011;11908;50.806;4.424;2023-06-24T07:02:17;2.20;;;1.52;;
23470;SDS011;11908;50.806;4.424;2023-06-24T07:04:43;3.28;;;1.65;;
23470;SDS011;11908;50.806;4.424;2023-06-24T07:07:09;2.80;;;1.70;;
23470;SDS011;11908;50.806;4.424;2023-06-24T07:09:35;2.72;;;1.90;;
23470;SDS011;11908;50.806;4.424;2023-06-24T07:12:01;4.63;;;1.70;;
23470;SDS011;11908;50.806;4.424;2023-06-24T07:14:27;2.58;;;1.70;;
23470;SDS011;11908;50.806;4.424;2023-06-24T07:16:53;3.53;;;1.70;;
23470;SDS011;11908;50.806;4.424;2023-06-24T07:19:18;3.33;;;1.88;;
23470;SDS011;11908;50.806;4.424;2023-06-24T07:21:44;3.05;;;1.77;;
23470;SDS011;11908;50.806;4.424;2023-06-24T07:24:10;2.35;;;1.77;;
23470;SDS011;11908;50.806;4.424;2023-06-24T07:26:35;5.10;;;1.63;;
23470;SDS011;11908;50.806;4.424;2023-06-24T07:29:01;3.00;;;1.80;;
23470;SDS011;11908;50.806;4.424;2023-06-24T07:31:30;5.68;;;1.73;;
23470;SDS011;11908;50.806;4.424;2023-06-24T07:33:56;2.60;;;1.83;;
23470;SDS011;11908;50.806;4.424;2023-06-24T07:36:21;3.67;;;1.55;;
23470;SDS011;11908;50.806;4.424;2023-06-24T07:38:47;8.02;;;1.60;;
23470;SDS011;11908;50.806;4.424;2023-06-24T07:41:13;2.72;;;1.60;;
23470;SDS011;11908;50.806;4.424;2023-06-24T07:43:38;2.67;;;1.67;;
23470;SDS011;11908;50.806;4.424;2023-06-24T07:46:04;2.20;;;1.50;;
23470;SDS011;11908;50.806;4.424;2023-06-24T07:48:30;2.97;;;1.90;;
23470;SDS011;11908;50.806;4.424;2023-06-24T07:50:55;2.95;;;1.58;;
23470;SDS011;11908;50.806;4.424;2023-06-24T07:53:21;3.00;;;1.60;;
23470;SDS011;11908;50.806;4.424;2023-06-24T07:55:47;3.63;;;1.70;;
23470;SDS011;11908;50.806;4.424;2023-06-24T07:58:12;3.03;;;1.55;;
23470;SDS011;11908;50.806;4.424;2023-06-24T08:00:38;3.08;;;1.48;;
23470;SDS011;11908;50.806;4.424;2023-06-24T08:03:03;1.95;;;1.55;;
23470;SDS011;11908;50.806;4.424;2023-06-24T08:05:29;2.03;;;1.40;;
23470;SDS011;11908;50.806;4.424;2023-06-24T08:07:55;2.90;;;1.42;;
23470;SDS011;11908;50.806;4.424;2023-06-24T08:10:20;3.88;;;1.48;;
23470;SDS011;11908;50.806;4.424;2023-06-24T08:12:49;4.30;;;1.38;;
23470;SDS011;11908;50.806;4.424;2023-06-24T08:15:15;1.80;;;1.50;;
23470;SDS011;11908;50.806;4.424;2023-06-24T08:17:42;2.78;;;1.70;;
23470;SDS011;11908;50.806;4.424;2023-06-24T08:20:08;2.50;;;1.60;;
23470;SDS011;11908;50.806;4.424;2023-06-24T08:22:34;2.47;;;1.55;;
23470;SDS011;11908;50.806;4.424;2023-06-24T08:25:00;4.03;;;1.88;;
23470;SDS011;11908;50.806;4.424;2023-06-24T08:27:25;2.25;;;1.48;;
23470;SDS011;11908;50.806;4.424;2023-06-24T08:29:51;1.63;;;1.13;;
23470;SDS011;11908;50.806;4.424;2023-06-24T08:32:17;3.22;;;1.63;;
23470;SDS011;11908;50.806;4.424;2023-06-24T08:34:42;3.28;;;1.45;;
23470;SDS011;11908;50.806;4.424;2023-06-24T08:37:08;2.50;;;1.60;;
23470;SDS011;11908;50.806;4.424;2023-06-24T08:39:34;3.03;;;1.40;;
23470;SDS011;11908;50.806;4.424;2023-06-24T08:42:01;3.15;;;1.30;;
23470;SDS011;11908;50.806;4.424;2023-06-24T08:44:27;1.58;;;1.48;;
23470;SDS011;11908;50.806;4.424;2023-06-24T08:46:53;2.72;;;1.50;;
23470;SDS011;11908;50.806;4.424;2023-06-24T08:51:49;1.70;;;1.35;;
23470;SDS011;11908;50.806;4.424;2023-06-24T08:54:19;5.97;;;1.60;;
23470;SDS011;11908;50.806;4.424;2023-06-24T08:56:45;3.65;;;1.40;;
23470;SDS011;11908;50.806;4.424;2023-06-24T08:59:11;5.70;;;1.50;;
23470;SDS011;11908;50.806;4.424;2023-06-24T09:01:37;2.30;;;1.30;;
23470;SDS011;11908;50.806;4.424;2023-06-24T09:04:03;2.00;;;1.70;;
23470;SDS011;11908;50.806;4.424;2023-06-24T09:06:30;2.33;;;1.42;;
23470;SDS011;11908;50.806;4.424;2023-06-24T09:08:56;2.03;;;1.40;;
23470;SDS011;11908;50.806;4.424;2023-06-24T09:11:23;2.92;;;1.70;;
23470;SDS011;11908;50.806;4.424;2023-06-24T09:13:59;3.72;;;1.40;;
23470;SDS011;11908;50.806;4.424;2023-06-24T09:16:25;3.38;;;1.40;;
23470;SDS011;11908;50.806;4.424;2023-06-24T09:18:52;1.40;;;1.20;;
23470;SDS011;11908;50.806;4.424;2023-06-24T09:21:25;4.50;;;1.38;;
23470;SDS011;11908;50.806;4.424;2023-06-24T09:23:53;3.33;;;1.35;;
23470;SDS011;11908;50.806;4.424;2023-06-24T09:26:19;3.47;;;1.65;;
23470;SDS011;11908;50.806;4.424;2023-06-24T09:28:49;4.63;;;2.10;;
23470;SDS011;11908;50.806;4.424;2023-06-24T09:31:14;3.90;;;1.52;;
23470;SDS011;11908;50.806;4.424;2023-06-24T09:33:40;3.47;;;1.52;;
23470;SDS011;11908;50.806;4.424;2023-06-24T09:36:06;1.60;;;1.10;;
23470;SDS011;11908;50.806;4.424;2023-06-24T09:38:32;1.52;;;1.30;;
23470;SDS011;11908;50.806;4.424;2023-06-24T09:41:02;2.47;;;1.30;;
23470;SDS011;11908;50.806;4.424;2023-06-24T09:43:29;1.48;;;1.30;;
23470;SDS011;11908;50.806;4.424;2023-06-24T09:45:56;2.65;;;1.35;;
23470;SDS011;11908;50.806;4.424;2023-06-24T09:48:24;1.67;;;1.38;;
23470;SDS011;11908;50.806;4.424;2023-06-24T09:50:49;1.40;;;1.20;;
23470;SDS011;11908;50.806;4.424;2023-06-24T09:53:16;1.60;;;1.40;;
23470;SDS011;11908;50.806;4.424;2023-06-24T09:55:43;1.48;;;1.13;;
23470;SDS011;11908;50.806;4.424;2023-06-24T09:58:11;2.08;;;1.33;;
23470;SDS011;11908;50.806;4.424;2023-06-24T10:00:38;1.98;;;1.20;;
23470;SDS011;11908;50.806;4.424;2023-06-24T10:03:04;1.65;;;1.25;;
23470;SDS011;11908;50.806;4.424;2023-06-24T10:05:30;1.98;;;1.33;;
23470;SDS011;11908;50.806;4.424;2023-06-24T10:07:55;3.58;;;1.30;;
23470;SDS011;11908;50.806;4.424;2023-06-24T10:10:21;2.70;;;1.13;;
23470;SDS011;11908;50.806;4.424;2023-06-24T10:12:47;2.97;;;1.00;;
23470;SDS011;11908;50.806;4.424;2023-06-24T10:15:13;2.20;;;1.30;;
23470;SDS011;11908;50.806;4.424;2023-06-24T10:17:40;1.63;;;1.30;;
23470;SDS011;11908;50.806;4.424;2023-06-24T10:20:06;5.30;;;1.23;;
23470;SDS011;11908;50.806;4.424;2023-06-24T10:22:32;3.20;;;1.40;;
23470;SDS011;11908;50.806;4.424;2023-06-24T10:25:01;1.63;;;1.27;;
23470;SDS011;11908;50.806;4.424;2023-06-24T10:27:27;3.10;;;1.25;;
23470;SDS011;11908;50.806;4.424;2023-06-24T10:29:58;1.75;;;1.40;;
23470;SDS011;11908;50.806;4.424;2023-06-24T10:32:29;3.78;;;1.33;;
23470;SDS011;11908;50.806;4.424;2023-06-24T10:35:05;1.95;;;1.35;;
23470;SDS011;11908;50.806;4.424;2023-06-24T10:37:31;3.58;;;1.20;;
23470;SDS011;11908;50.806;4.424;2023-06-24T10:40:01;1.42;;;1.10;;
23470;SDS011;11908;50.806;4.424;2023-06-24T10:45:14;2.47;;;1.38;;
23470;SDS011;11908;50.806;4.424;2023-06-24T10:47:43;1.70;;;1.40;;
23470;SDS011;11908;50.806;4.424;2023-06-24T10:50:20;4.15;;;1.38;;
23470;SDS011;11908;50.806;4.424;2023-06-24T10:52:48;1.85;;;1.42;;
23470;SDS011;11908;50.806;4.424;2023-06-24T10:55:18;2.88;;;1.48;;
23470;SDS011;11908;50.806;4.424;2023-06-24T10:57:44;3.92;;;1.50;;
23470;SDS011;11908;50.806;4.424;2023-06-24T11:00:11;2.05;;;1.40;;
23470;SDS011;11908;50.806;4.424;2023-06-24T11:02:38;3.05;;;1.33;;
23470;SDS011;11908;50.806;4.424;2023-06-24T11:05:05;1.30;;;1.20;;
23470;SDS011;11908;50.806;4.424;2023-06-24T11:07:34;1.63;;;1.50;;
23470;SDS011;11908;50.806;4.424;2023-06-24T11:10:05;3.33;;;1.38;;
23470;SDS011;11908;50.806;4.424;2023-06-24T11:12:36;3.10;;;1.50;;
23470;SDS011;11908;50.806;4.424;2023-06-24T11:15:09;4.25;;;1.40;;
23470;SDS011;11908;50.806;4.424;2023-06-24T11:17:36;1.55;;;1.45;;
23470;SDS011;11908;50.806;4.424;2023-06-24T11:20:06;2.75;;;1.58;;
23470;SDS011;11908;50.806;4.424;2023-06-24T11:22:33;2.38;;;1.70;;
23470;SDS011;11908;50.806;4.424;2023-06-24T11:24:59;3.85;;;1.42;;
23470;SDS011;11908;50.806;4.424;2023-06-24T11:27:25;1.55;;;1.30;;
23470;SDS011;11908;50.806;4.424;2023-06-24T11:29:53;1.55;;;1.45;;
23470;SDS011;11908;50.806;4.424;2023-06-24T11:32:19;6.10;;;1.60;;
23470;SDS011;11908;50.806;4.424;2023-06-24T11:34:46;1.95;;;1.58;;
23470;SDS011;11908;50.806;4.424;2023-06-24T11:37:12;3.17;;;1.48;;
23470;SDS011;11908;50.806;4.424;2023-06-24T11:39:39;2.22;;;1.60;;
23470;SDS011;11908;50.806;4.424;2023-06-24T11:42:08;2.05;;;1.35;;
23470;SDS011;11908;50.806;4.424;2023-06-24T11:44:35;3.22;;;1.40;;
23470;SDS011;11908;50.806;4.424;2023-06-24T11:47:06;2.45;;;1.63;;
23470;SDS011;11908;50.806;4.424;2023-06-24T11:49:43;2.58;;;1.20;;
23470;SDS011;11908;50.806;4.424;2023-06-24T11:52:13;2.60;;;1.67;;
23470;SDS011;11908;50.806;4.424;2023-06-24T11:54:42;2.10;;;1.40;;
23470;SDS011;11908;50.806;4.424;2023-06-24T11:57:08;2.15;;;1.77;;
23470;SDS011;11908;50.806;4.424;2023-06-24T11:59:34;3.22;;;1.50;;
23470;SDS011;11908;50.806;4.424;2023-06-24T12:02:00;3.55;;;1.48;;
23470;SDS011;11908;50.806;4.424;2023-06-24T12:04:31;2.17;;;1.63;;
23470;SDS011;11908;50.806;4.424;2023-06-24T12:06:58;1.55;;;1.40;;
23470;SDS011;11908;50.806;4.424;2023-06-24T12:09:24;1.60;;;1.50;;
23470;SDS011;11908;50.806;4.424;2023-06-24T12:11:51;1.98;;;1.77;;
23470;SDS011;11908;50.806;4.424;2023-06-24T12:14:17;2.40;;;1.80;;
23470;SDS011;11908;50.806;4.424;2023-06-24T12:16:43;2.42;;;1.52;;
23470;SDS011;11908;50.806;4.424;2023-06-24T12:19:09;2.20;;;1.60;;
23470;SDS011;11908;50.806;4.424;2023-06-24T12:21:35;2.72;;;1.80;;
23470;SDS011;11908;50.806;4.424;2023-06-24T12:24:01;2.13;;;1.58;;
23470;SDS011;11908;50.806;4.424;2023-06-24T12:26:27;3.30;;;1.35;;
23470;SDS011;11908;50.806;4.424;2023-06-24T12:28:56;1.95;;;1.20;;
23470;SDS011;11908;50.806;4.424;2023-06-24T12:31:22;2.67;;;1.70;;
23470;SDS011;11908;50.806;4.424;2023-06-24T12:33:48;3.20;;;1.90;;
23470;SDS011;11908;50.806;4.424;2023-06-24T12:36:15;1.80;;;1.60;;
23470;SDS011;11908;50.806;4.424;2023-06-24T12:38:41;2.30;;;1.67;;
23470;SDS011;11908;50.806;4.424;2023-06-24T12:41:06;3.33;;;1.95;;
23470;SDS011;11908;50.806;4.424;2023-06-24T12:43:32;3.25;;;1.60;;
23470;SDS011;11908;50.806;4.424;2023-06-24T12:45:58;1.90;;;1.65;;
23470;SDS011;11908;50.806;4.424;2023-06-24T12:48:23;1.67;;;1.50;;
23470;SDS011;11908;50.806;4.424;2023-06-24T12:50:49;1.40;;;1.30;;
23470;SDS011;11908;50.806;4.424;2023-06-24T12:53:18;4.00;;;1.15;;
23470;SDS011;11908;50.806;4.424;2023-06-24T12:55:44;3.90;;;1.52;;
23470;SDS011;11908;50.806;4.424;2023-06-24T12:58:10;3.05;;;1.80;;
23470;SDS011;11908;50.806;4.424;2023-06-24T13:00:35;4.00;;;1.55;;
23470;SDS011;11908;50.806;4.424;2023-06-24T13:03:01;3.75;;;1.67;;
23470;SDS011;11908;50.806;4.424;2023-06-24T13:05:27;2.30;;;1.63;;
23470;SDS011;11908;50.806;4.424;2023-06-24T13:07:53;2.03;;;1.73;;
23470;SDS011;11908;50.806;4.424;2023-06-24T13:10:18;5.82;;;1.70;;
23470;SDS011;11908;50.806;4.424;2023-06-24T13:12:45;2.45;;;1.88;;
23470;SDS011;11908;50.806;4.424;2023-06-24T13:15:11;2.38;;;1.60;;
23470;SDS011;11908;50.806;4.424;2023-06-24T13:17:37;2.95;;;1.83;;
23470;SDS011;11908;50.806;4.424;2023-06-24T13:20:03;3.10;;;1.80;;
23470;SDS011;11908;50.806;4.424;2023-06-24T13:22:29;1.88;;;1.45;;
23470;SDS011;11908;50.806;4.424;2023-06-24T13:24:56;2.05;;;1.45;;
23470;SDS011;11908;50.806;4.424;2023-06-24T13:27:21;1.98;;;1.70;;
23470;SDS011;11908;50.806;4.424;2023-06-24T13:29:47;4.95;;;2.03;;
23470;SDS011;11908;50.806;4.424;2023-06-24T13:32:12;5.10;;;1.85;;
23470;SDS011;11908;50.806;4.424;2023-06-24T13:34:38;2.92;;;1.83;;
23470;SDS011;11908;50.806;4.424;2023-06-24T13:37:04;1.83;;;1.58;;
23470;SDS011;11908;50.806;4.424;2023-06-24T13:39:30;5.72;;;2.10;;
23470;SDS011;11908;50.806;4.424;2023-06-24T13:41:57;2.08;;;1.83;;
23470;SDS011;11908;50.806;4.424;2023-06-24T13:44:23;2.55;;;1.85;;
23470;SDS011;11908;50.806;4.424;2023-06-24T13:46:48;3.25;;;1.80;;
23470;SDS011;11908;50.806;4.424;2023-06-24T13:49:15;3.50;;;2.10;;
23470;SDS011;11908;50.806;4.424;2023-06-24T13:51:41;2.85;;;2.00;;
23470;SDS011;11908;50.806;4.424;2023-06-24T13:54:07;2.50;;;2.15;;
23470;SDS011;11908;50.806;4.424;2023-06-24T13:56:33;2.28;;;2.08;;
23470;SDS011;11908;50.806;4.424;2023-06-24T13:58:58;2.53;;;1.80;;
23470;SDS011;11908;50.806;4.424;2023-06-24T14:01:25;2.92;;;2.10;;
23470;SDS011;11908;50.806;4.424;2023-06-24T14:03:53;2.78;;;2.00;;
23470;SDS011;11908;50.806;4.424;2023-06-24T14:06:20;2.67;;;1.98;;
23470;SDS011;11908;50.806;4.424;2023-06-24T14:08:48;2.75;;;2.10;;
23470;SDS011;11908;50.806;4.424;2023-06-24T14:11:14;2.53;;;1.98;;
23470;SDS011;11908;50.806;4.424;2023-06-24T14:13:41;3.97;;;2.00;;
23470;SDS011;11908;50.806;4.424;2023-06-24T14:16:07;4.03;;;2.08;;
23470;SDS011;11908;50.806;4.424;2023-06-24T14:18:33;2.90;;;1.85;;
23470;SDS011;11908;50.806;4.424;2023-06-24T14:21:00;2.20;;;1.80;;
23470;SDS011;11908;50.806;4.424;2023-06-24T14:23:27;2.40;;;1.90;;
23470;SDS011;11908;50.806;4.424;2023-06-24T14:25:54;5.20;;;2.15;;
23470;SDS011;11908;50.806;4.424;2023-06-24T14:28:20;2.75;;;2.10;;
23470;SDS011;11908;50.806;4.424;2023-06-24T14:30:46;2.17;;;1.85;;
23470;SDS011;11908;50.806;4.424;2023-06-24T14:33:12;3.85;;;2.65;;
23470;SDS011;11908;50.806;4.424;2023-06-24T14:35:38;3.30;;;2.65;;
23470;SDS011;11908;50.806;4.424;2023-06-24T14:38:03;4.30;;;2.08;;
23470;SDS011;11908;50.806;4.424;2023-06-24T14:40:30;3.70;;;2.17;;
23470;SDS011;11908;50.806;4.424;2023-06-24T14:42:56;2.35;;;1.92;;
23470;SDS011;11908;50.806;4.424;2023-06-24T14:45:22;1.83;;;1.63;;
23470;SDS011;11908;50.806;4.424;2023-06-24T14:47:47;4.10;;;1.98;;
23470;SDS011;11908;50.806;4.424;2023-06-24T14:50:13;3.22;;;2.22;;
23470;SDS011;11908;50.806;4.424;2023-06-24T14:52:39;2.72;;;2.40;;
23470;SDS011;11908;50.806;4.424;2023-06-24T14:55:05;3.00;;;2.38;;
23470;SDS011;11908;50.806;4.424;2023-06-24T14:57:31;3.78;;;2.10;;
23470;SDS011;11908;50.806;4.424;2023-06-24T14:59:57;3.08;;;2.20;;
23470;SDS011;11908;50.806;4.424;2023-06-24T15:02:22;3.60;;;1.95;;
23470;SDS011;11908;50.806;4.424;2023-06-24T15:04:50;4.63;;;3.75;;